Updated07/07/2020 13:00 
 

GeoURL
free counters
Scottish Weather Network UK Weather Network Cumulus Top Weather Sites

Peebles Weather - Nearby METAR Reports

Raw Data, Raw Data Expanded

Ignore low humidity and Dew Point values. Something wrong with the sensor.
Daytime temperatures are in direct sunlight so may be higher than official air temperature values.
As with any other website, we log your IP address and browser type in the server logs for diagnostic reasons. Cookies are used to record visit time and gauges preferences. No personal information is stored or processed.

All times are in local time (GMT, or BST in summer) unless specified.

2020/07/07 11:50 EGPH 071150Z 26008KT 230V300 9999 OVC042 15/09 Q1016
16.2°C 0.0 mm 0.0 mm 0.0 mm 2.6 mph 3.8 mph 1011.8 hPa 62% X-Ray Solar Flare Level
Planetary K-Index
Planetary K-Index History
Station Warn Rain Snow Flood Wind Ltng Heat Cold Glob Moon Temp Rain 1h Rain Tue Rain 24h Wind 10m Gust Pressure Hum Proton Levels

m Waning Gibbous Comfortable F1-W F: A: Kp:0 SSN:0

METAR Reports

 

EGPH - Edinburgh Airpor, United Kingdom
Distance from station: NNW 22mi, 36km
Updated: 07/07/2020 12:50
Overcast
Overcast
 Wind from W
Wind: W 9 mph , 15 km/h
Temperature: 15°C
Dew Point: 9°C
Humidity: 68%
Barometer: 1016 hPa
Clouds: Overcast
Visibility: 6 miles , 10 km
Cloud details: Overcast 1280 m
2020/07/07 11:50 EGPH 071150Z 26008KT 230V300 9999 OVC042 15/09 Q1016
EGOM - Spadeadam, United Kingdom
Distance from station: SSE 49mi, 79km
Updated: 07/07/2020 11:50
Mostly cloudy
Mostly cloudy
 Wind from SW
Wind: SW 13 mph , 20 km/h
Temperature: 11°C
Dew Point: 8°C
Humidity: 82%
Barometer: 1016 hPa
Clouds: Mostly cloudy
Visibility: 6 miles , 10 km
Cloud details: Partly cloudy 427 m
Mostly cloudy 2438 m
2020/07/07 10:50 EGOM 071050Z AUTO 22011KT 9999 SCT014/// BKN080/// 11/08 Q1016
 
EGNC - Carlisle, United Kingdom
Distance from station: SSE 51mi, 82km
Updated: 27/03/2020 14:50
NOT Current
Mostly cloudy
Mostly cloudy
 Wind from ENE
Wind: ENE 9 mph , 15 km/h
Temperature: 11°C
Dew Point: 4°C
Humidity: 62%
Barometer: 1029 hPa
Clouds: Mostly cloudy
Visibility: 6 miles , 9 km
Cloud details: Few Clouds 1067 m
Mostly cloudy 1372 m
2020/03/27 14:50 EGNC 271450Z 07008KT 050V110 9000 FEW035 BKN045 11/04 Q1029
EGPF - Glasgow Airport, United Kingdom
Distance from station: WNW 51mi, 82km
Updated: 07/07/2020 12:50
Light rain, Thunderstorm
Light rain, Thunderstorm
 Wind from WNW
Wind: WNW 8 mph , 13 km/h
Temperature: 13°C
Dew Point: 10°C
Humidity: 82%
Barometer: 1016 hPa
Summary: Light rain
Clouds: Thunderstorm
Visibility: 6 miles , 10 km
Cloud details: Partly cloudy 549 m
Partly cloudy 701 m
Mostly cloudy 1006 m
2020/07/07 11:50 EGPF 071150Z AUTO 29007KT 9999 -RA SCT018/// SCT023/// BKN033/// //////CB 13/10 Q1016
 
EGQL - Leuchars Raf, United Kingdom
Distance from station: NNE 53mi, 85km
Updated: 07/07/2020 11:50
Mostly cloudy
Mostly cloudy
 Wind from W
Wind: W 12 mph , 19 km/h
Temperature: 15°C
Dew Point: 8°C
Humidity: 63%
Barometer: 1015 hPa
Clouds: Mostly cloudy
Visibility: 6 miles , 10 km
Cloud details: Few Clouds 1067 m
Mostly cloudy 4877 m
2020/07/07 10:50 EGQL 071050Z AUTO 28010KT 9999 FEW035/// BKN160/// 15/08 Q1015
EGPK - Prestwick(Civ/Na, United Kingdom
Distance from station: W 55mi, 89km
Updated: 07/07/2020 12:50
Partly cloudy
Partly cloudy
 Wind from W
Wind: W 10 mph , 17 km/h
Temperature: 14°C
Dew Point: 10°C
Humidity: 77%
Barometer: 1017 hPa
Clouds: Partly cloudy
Visibility: 6 miles , 10 km
Cloud details: Few Clouds 396 m
Partly cloudy 975 m
2020/07/07 11:50 EGPK 071150Z 26009KT 220V280 9999 FEW013 SCT032 14/10 Q1017
 
EGPN - Dundee/Riverside, United Kingdom
Distance from station: N 56mi, 90km
Updated: 07/07/2020 12:50
Partly cloudy
Partly cloudy
 Wind from WSW
Wind: WSW 12 mph , 19 km/h
Temperature: 15°C
Dew Point: 10°C
Humidity: 72%
Barometer: 1015 hPa
Clouds: Partly cloudy
Visibility: 6 miles , 10 km
Cloud details: Few Clouds 610 m
Partly cloudy 1372 m
2020/07/07 11:50 EGPN 071150Z 24010KT 9999 FEW020 SCT045 15/10 Q1015
EGNT - Newcastle, United Kingdom
Distance from station: SE 72mi, 116km
Updated: 07/07/2020 12:50
Few Clouds
Few Clouds
 Wind from W
Wind: W 14 mph , 22 km/h
Temperature: 14°C
Dew Point: 7°C
Humidity: 63%
Barometer: 1016 hPa
Clouds: Few Clouds
Visibility: 6 miles , 10 km
Cloud details: Few Clouds 762 m
2020/07/07 11:50 EGNT 071150Z 26012KT 9999 FEW025 14/07 Q1016
 
EGNV - Tees-Side, United Kingdom
Distance from station: SE 104mi, 168km
Updated: 07/07/2020 12:50
Nearby showers, Partly cloudy
Nearby showers, Partly cloudy
 Wind from SW
Wind: SW 9 mph , 15 km/h
Temperature: 13°C
Dew Point: 10°C
Humidity: 82%
Barometer: 1017 hPa
Summary: Nearby Showers
Clouds: Partly cloudy
Visibility: 6 miles , 10 km
Cloud details: Few Clouds 396 m
Partly cloudy 732 m
2020/07/07 11:50 EGNV 071150Z 22008KT 9999 VCSH FEW013 SCT024 13/10 Q1017
EGPD - Aberdeen/Dyce, United Kingdom
Distance from station: NNE 114mi, 183km
Updated: 07/07/2020 12:50
Nearby showers, Mostly cloudy
Nearby showers, Mostly cloudy
 Wind from NNW
Wind: NNW 10 mph , 17 km/h
Temperature: 12°C
Dew Point: 10°C
Humidity: 88%
Barometer: 1015 hPa
Summary: Nearby Showers
Clouds: Mostly cloudy
Visibility: 5 miles , 8 km
Cloud details: Partly cloudy 335 m
Mostly cloudy 792 m
2020/07/07 11:50 EGPD 071150Z 34009KT 8000 VCSH SCT011 BKN026 12/10 Q1015 TEMPO SHRA
 
EGNS - Isle Of Man/Rona, United Kingdom
Distance from station: SSW 122mi, 197km
Updated: 07/07/2020 12:50
Rain, Overcast
Rain, Overcast
 Wind from SW
Wind: SW 13 mph , 20 km/h
Temperature: 12°C
Dew Point: 11°C
Humidity: 94%
Barometer: 1017 hPa
Summary: Rain
Clouds: Overcast
Visibility: 6 miles , 10 km
Cloud details: Few Clouds 244 m
Overcast 1219 m
2020/07/07 11:50 EGNS 071150Z 22011KT 9999 RA FEW008 OVC040 12/11 Q1017 BECMG NSW
EGAC - Belfast Harbour, United Kingdom
Distance from station: WSW 128mi, 206km
Updated: 07/07/2020 12:50
Mostly cloudy
Mostly cloudy
 Wind from SSW
Wind: SSW 9 mph , 15 km/h
Temperature: 14°C
Dew Point: 8°C
Humidity: 67%
Barometer: 1016 hPa
Clouds: Mostly cloudy
Visibility: 6 miles , 10 km
Cloud details: Partly cloudy 792 m
Mostly cloudy 975 m
Mostly cloudy 1372 m
2020/07/07 11:50 EGAC 071150Z AUTO 21008KT 9999 SCT026/// BKN032/// BKN045/// 14/08 Q1016
 
EGPE - Inverness/Dalcro, United Kingdom
Distance from station: NNW 134mi, 215km
Updated: 07/07/2020 12:50
Nearby showers, Mostly cloudy
Nearby showers, Mostly cloudy
 Wind from varies
Wind: varies 2 mph , 4 km/h
Temperature: 13°C
Dew Point: 10°C
Humidity: 82%
Barometer: 1015 hPa
Summary: Nearby Showers
Clouds: Mostly cloudy
Visibility: 6 miles , 10 km
Cloud details: Few Clouds 183 m
Partly cloudy 427 m
Mostly cloudy 1219 m
2020/07/07 11:50 EGPE 071150Z VRB02KT 9999 VCSH FEW006 SCT014 BKN040 13/10 Q1015
XHTML 1.1 | CSS